Altamont, Illinois
Current Conditions -  °F | °C
As of 5:55 PM on Wednesday 26 Nov 2014 (Local Time) from K1H2 Reporting Station
Light Snow Light Snow  
Wind Chill: 26°   Ceiling: 400
Heat Index: 31°   Visibility: 1mi
Dew Point: 29°   Wind: 5mph
Humidity: 91%   Direction: 60°ENE
Pressure: 30.07"   Gusts: NA
Location:  39.06°N, 88.75°W
Report Text: K1H2 262355Z AUTO 06004KT 1SM -SN BKN004 OVC010 00/M02 A3007 RMK AO2 P0002 60003 T10051018 10023 21005
Loading
Personal Weather Stations






























Interactive Weather Map New forecast layout! Learn more

10-Day Weather Forecast

Advertisements
Track Severe Weather on mobile